sensor_id;sensor_type;location;lat;lon;timestamp;P1;durP1;ratioP1;P2;durP2;ratioP2
6223;SDS011;3145;42.726;23.342;2023-11-21T00:00:00;77.33;;;46.10;;
6223;SDS011;3145;42.726;23.342;2023-11-21T00:02:28;102.97;;;56.20;;
6223;SDS011;3145;42.726;23.342;2023-11-21T00:04:55;108.07;;;56.80;;
6223;SDS011;3145;42.726;23.342;2023-11-21T00:07:22;101.87;;;52.37;;
6223;SDS011;3145;42.726;23.342;2023-11-21T00:09:48;81.40;;;50.27;;
6223;SDS011;3145;42.726;23.342;2023-11-21T00:12:16;82.70;;;46.97;;
6223;SDS011;3145;42.726;23.342;2023-11-21T00:14:43;81.37;;;48.87;;
6223;SDS011;3145;42.726;23.342;2023-11-21T00:17:09;82.27;;;48.17;;
6223;SDS011;3145;42.726;23.342;2023-11-21T00:19:37;142.43;;;69.77;;
6223;SDS011;3145;42.726;23.342;2023-11-21T00:22:04;94.80;;;52.27;;
6223;SDS011;3145;42.726;23.342;2023-11-21T00:24:32;88.80;;;52.50;;
6223;SDS011;3145;42.726;23.342;2023-11-21T00:26:59;89.13;;;52.53;;
6223;SDS011;3145;42.726;23.342;2023-11-21T00:29:25;82.20;;;50.93;;
6223;SDS011;3145;42.726;23.342;2023-11-21T00:31:52;87.33;;;51.00;;
6223;SDS011;3145;42.726;23.342;2023-11-21T00:34:19;105.17;;;57.37;;
6223;SDS011;3145;42.726;23.342;2023-11-21T00:36:47;125.77;;;60.27;;
6223;SDS011;3145;42.726;23.342;2023-11-21T00:39:14;132.90;;;64.93;;
6223;SDS011;3145;42.726;23.342;2023-11-21T00:41:40;150.53;;;72.67;;
6223;SDS011;3145;42.726;23.342;2023-11-21T00:44:07;138.07;;;69.63;;
6223;SDS011;3145;42.726;23.342;2023-11-21T00:46:34;150.73;;;73.50;;
6223;SDS011;3145;42.726;23.342;2023-11-21T00:49:00;138.13;;;73.00;;
6223;SDS011;3145;42.726;23.342;2023-11-21T00:51:29;140.03;;;72.27;;
6223;SDS011;3145;42.726;23.342;2023-11-21T00:53:57;138.83;;;68.27;;
6223;SDS011;3145;42.726;23.342;2023-11-21T00:56:24;136.73;;;70.33;;
6223;SDS011;3145;42.726;23.342;2023-11-21T00:58:50;126.13;;;68.17;;
6223;SDS011;3145;42.726;23.342;2023-11-21T01:01:17;132.53;;;70.50;;
6223;SDS011;3145;42.726;23.342;2023-11-21T01:03:45;154.57;;;86.13;;
6223;SDS011;3145;42.726;23.342;2023-11-21T01:06:12;160.67;;;81.40;;
6223;SDS011;3145;42.726;23.342;2023-11-21T01:08:39;163.13;;;87.90;;
6223;SDS011;3145;42.726;23.342;2023-11-21T01:11:07;160.90;;;82.93;;
6223;SDS011;3145;42.726;23.342;2023-11-21T01:13:37;142.70;;;79.10;;
6223;SDS011;3145;42.726;23.342;2023-11-21T01:16:04;146.73;;;78.23;;
6223;SDS011;3145;42.726;23.342;2023-11-21T01:18:31;137.93;;;72.97;;
6223;SDS011;3145;42.726;23.342;2023-11-21T01:20:58;128.53;;;71.20;;
6223;SDS011;3145;42.726;23.342;2023-11-21T01:23:25;136.03;;;70.30;;
6223;SDS011;3145;42.726;23.342;2023-11-21T01:25:52;125.03;;;65.77;;
6223;SDS011;3145;42.726;23.342;2023-11-21T01:28:21;118.67;;;71.67;;
6223;SDS011;3145;42.726;23.342;2023-11-21T01:30:47;122.53;;;68.37;;
6223;SDS011;3145;42.726;23.342;2023-11-21T01:33:14;114.00;;;69.00;;
6223;SDS011;3145;42.726;23.342;2023-11-21T01:35:41;141.77;;;89.00;;
6223;SDS011;3145;42.726;23.342;2023-11-21T01:38:08;123.40;;;71.50;;
6223;SDS011;3145;42.726;23.342;2023-11-21T01:40:35;129.43;;;70.00;;
6223;SDS011;3145;42.726;23.342;2023-11-21T01:43:02;116.93;;;66.47;;
6223;SDS011;3145;42.726;23.342;2023-11-21T01:45:30;113.40;;;64.23;;
6223;SDS011;3145;42.726;23.342;2023-11-21T01:47:58;102.03;;;63.67;;
6223;SDS011;3145;42.726;23.342;2023-11-21T01:50:26;103.70;;;61.70;;
6223;SDS011;3145;42.726;23.342;2023-11-21T01:52:54;117.47;;;69.20;;
6223;SDS011;3145;42.726;23.342;2023-11-21T01:55:21;114.90;;;70.40;;
6223;SDS011;3145;42.726;23.342;2023-11-21T01:57:48;136.63;;;83.33;;
6223;SDS011;3145;42.726;23.342;2023-11-21T02:00:16;139.03;;;80.57;;
6223;SDS011;3145;42.726;23.342;2023-11-21T02:02:46;125.70;;;73.90;;
6223;SDS011;3145;42.726;23.342;2023-11-21T02:05:14;125.50;;;73.37;;
6223;SDS011;3145;42.726;23.342;2023-11-21T02:07:43;123.73;;;73.57;;
6223;SDS011;3145;42.726;23.342;2023-11-21T02:10:13;117.70;;;69.93;;
6223;SDS011;3145;42.726;23.342;2023-11-21T02:12:40;115.23;;;66.27;;
6223;SDS011;3145;42.726;23.342;2023-11-21T02:15:07;99.63;;;60.57;;
6223;SDS011;3145;42.726;23.342;2023-11-21T02:17:40;90.20;;;55.37;;
6223;SDS011;3145;42.726;23.342;2023-11-21T02:20:10;87.87;;;53.43;;
6223;SDS011;3145;42.726;23.342;2023-11-21T02:22:40;86.07;;;53.40;;
6223;SDS011;3145;42.726;23.342;2023-11-21T02:25:09;90.67;;;52.00;;
6223;SDS011;3145;42.726;23.342;2023-11-21T02:27:36;76.97;;;45.87;;
6223;SDS011;3145;42.726;23.342;2023-11-21T02:30:03;98.27;;;56.73;;
6223;SDS011;3145;42.726;23.342;2023-11-21T02:32:32;101.30;;;54.97;;
6223;SDS011;3145;42.726;23.342;2023-11-21T02:35:00;107.13;;;57.00;;
6223;SDS011;3145;42.726;23.342;2023-11-21T02:37:27;120.37;;;62.13;;
6223;SDS011;3145;42.726;23.342;2023-11-21T02:39:54;109.23;;;58.07;;
6223;SDS011;3145;42.726;23.342;2023-11-21T02:42:22;101.43;;;55.60;;
6223;SDS011;3145;42.726;23.342;2023-11-21T02:44:49;97.13;;;52.83;;
6223;SDS011;3145;42.726;23.342;2023-11-21T02:47:16;103.17;;;57.13;;
6223;SDS011;3145;42.726;23.342;2023-11-21T02:49:42;89.33;;;53.00;;
6223;SDS011;3145;42.726;23.342;2023-11-21T02:52:09;95.70;;;53.27;;
6223;SDS011;3145;42.726;23.342;2023-11-21T02:54:36;89.83;;;52.20;;
6223;SDS011;3145;42.726;23.342;2023-11-21T02:57:03;87.30;;;51.50;;
6223;SDS011;3145;42.726;23.342;2023-11-21T02:59:32;86.17;;;51.03;;
6223;SDS011;3145;42.726;23.342;2023-11-21T03:01:59;86.43;;;50.03;;
6223;SDS011;3145;42.726;23.342;2023-11-21T03:04:25;73.93;;;47.07;;
6223;SDS011;3145;42.726;23.342;2023-11-21T03:06:52;83.90;;;48.87;;
6223;SDS011;3145;42.726;23.342;2023-11-21T03:09:19;89.60;;;52.90;;
6223;SDS011;3145;42.726;23.342;2023-11-21T03:11:45;95.37;;;53.83;;
6223;SDS011;3145;42.726;23.342;2023-11-21T03:14:12;79.03;;;49.00;;
6223;SDS011;3145;42.726;23.342;2023-11-21T03:16:40;88.70;;;51.43;;
6223;SDS011;3145;42.726;23.342;2023-11-21T03:19:07;94.20;;;56.80;;
6223;SDS011;3145;42.726;23.342;2023-11-21T03:21:34;101.50;;;58.00;;
6223;SDS011;3145;42.726;23.342;2023-11-21T03:24:01;101.57;;;56.87;;
6223;SDS011;3145;42.726;23.342;2023-11-21T03:26:27;111.77;;;60.60;;
6223;SDS011;3145;42.726;23.342;2023-11-21T03:28:54;126.47;;;70.20;;
6223;SDS011;3145;42.726;23.342;2023-11-21T03:31:21;116.50;;;69.53;;
6223;SDS011;3145;42.726;23.342;2023-11-21T03:33:49;125.37;;;70.20;;
6223;SDS011;3145;42.726;23.342;2023-11-21T03:36:17;115.80;;;69.90;;
6223;SDS011;3145;42.726;23.342;2023-11-21T03:38:44;119.77;;;69.33;;
6223;SDS011;3145;42.726;23.342;2023-11-21T03:41:11;125.97;;;73.63;;
6223;SDS011;3145;42.726;23.342;2023-11-21T03:43:37;117.97;;;71.37;;
6223;SDS011;3145;42.726;23.342;2023-11-21T03:46:04;124.67;;;71.40;;
6223;SDS011;3145;42.726;23.342;2023-11-21T03:48:32;117.83;;;63.17;;
6223;SDS011;3145;42.726;23.342;2023-11-21T03:51:00;148.37;;;79.73;;
6223;SDS011;3145;42.726;23.342;2023-11-21T03:53:27;106.47;;;62.33;;
6223;SDS011;3145;42.726;23.342;2023-11-21T03:55:54;97.63;;;51.83;;
6223;SDS011;3145;42.726;23.342;2023-11-21T03:58:21;119.30;;;59.30;;
6223;SDS011;3145;42.726;23.342;2023-11-21T04:00:47;80.57;;;48.37;;
6223;SDS011;3145;42.726;23.342;2023-11-21T04:03:15;85.80;;;49.00;;
6223;SDS011;3145;42.726;23.342;2023-11-21T04:05:41;70.17;;;41.97;;
6223;SDS011;3145;42.726;23.342;2023-11-21T04:08:09;72.63;;;43.07;;
6223;SDS011;3145;42.726;23.342;2023-11-21T04:10:36;63.80;;;41.50;;
6223;SDS011;3145;42.726;23.342;2023-11-21T04:13:04;59.40;;;36.43;;
6223;SDS011;3145;42.726;23.342;2023-11-21T04:15:31;66.97;;;38.93;;
6223;SDS011;3145;42.726;23.342;2023-11-21T04:17:58;59.90;;;36.20;;
6223;SDS011;3145;42.726;23.342;2023-11-21T04:20:25;58.20;;;35.43;;
6223;SDS011;3145;42.726;23.342;2023-11-21T04:22:52;62.10;;;39.37;;
6223;SDS011;3145;42.726;23.342;2023-11-21T04:25:20;63.20;;;40.03;;
6223;SDS011;3145;42.726;23.342;2023-11-21T04:27:48;62.73;;;39.43;;
6223;SDS011;3145;42.726;23.342;2023-11-21T04:30:15;63.07;;;37.70;;
6223;SDS011;3145;42.726;23.342;2023-11-21T04:32:42;61.43;;;37.37;;
6223;SDS011;3145;42.726;23.342;2023-11-21T04:35:09;61.73;;;37.70;;
6223;SDS011;3145;42.726;23.342;2023-11-21T04:37:35;55.70;;;37.13;;
6223;SDS011;3145;42.726;23.342;2023-11-21T04:40:02;93.53;;;51.43;;
6223;SDS011;3145;42.726;23.342;2023-11-21T04:42:34;70.73;;;42.00;;
6223;SDS011;3145;42.726;23.342;2023-11-21T04:45:01;56.23;;;38.60;;
6223;SDS011;3145;42.726;23.342;2023-11-21T04:47:30;56.80;;;38.07;;
6223;SDS011;3145;42.726;23.342;2023-11-21T04:49:57;58.07;;;39.03;;
6223;SDS011;3145;42.726;23.342;2023-11-21T04:52:23;60.47;;;37.97;;
6223;SDS011;3145;42.726;23.342;2023-11-21T04:54:50;57.07;;;38.60;;
6223;SDS011;3145;42.726;23.342;2023-11-21T04:57:19;74.27;;;42.70;;
6223;SDS011;3145;42.726;23.342;2023-11-21T04:59:48;68.83;;;41.17;;
6223;SDS011;3145;42.726;23.342;2023-11-21T05:02:15;60.90;;;39.37;;
6223;SDS011;3145;42.726;23.342;2023-11-21T05:04:44;71.03;;;43.90;;
6223;SDS011;3145;42.726;23.342;2023-11-21T05:07:11;67.60;;;43.13;;
6223;SDS011;3145;42.726;23.342;2023-11-21T05:09:40;63.23;;;43.90;;
6223;SDS011;3145;42.726;23.342;2023-11-21T05:12:09;70.40;;;42.47;;
6223;SDS011;3145;42.726;23.342;2023-11-21T05:14:36;66.67;;;43.43;;
6223;SDS011;3145;42.726;23.342;2023-11-21T05:17:04;72.97;;;45.47;;
6223;SDS011;3145;42.726;23.342;2023-11-21T05:19:33;65.03;;;42.47;;
6223;SDS011;3145;42.726;23.342;2023-11-21T05:22:00;64.97;;;38.60;;
6223;SDS011;3145;42.726;23.342;2023-11-21T05:24:26;70.90;;;42.70;;
6223;SDS011;3145;42.726;23.342;2023-11-21T05:26:53;76.00;;;49.33;;
6223;SDS011;3145;42.726;23.342;2023-11-21T05:29:21;70.13;;;45.37;;
6223;SDS011;3145;42.726;23.342;2023-11-21T05:31:48;72.27;;;47.40;;
6223;SDS011;3145;42.726;23.342;2023-11-21T05:34:16;73.07;;;46.17;;
6223;SDS011;3145;42.726;23.342;2023-11-21T05:36:43;73.30;;;42.10;;
6223;SDS011;3145;42.726;23.342;2023-11-21T05:39:10;79.00;;;50.63;;
6223;SDS011;3145;42.726;23.342;2023-11-21T05:41:37;70.83;;;45.37;;
6223;SDS011;3145;42.726;23.342;2023-11-21T05:44:04;72.00;;;48.17;;
6223;SDS011;3145;42.726;23.342;2023-11-21T05:46:31;103.77;;;58.90;;
6223;SDS011;3145;42.726;23.342;2023-11-21T05:48:58;102.70;;;58.27;;
6223;SDS011;3145;42.726;23.342;2023-11-21T05:51:26;114.63;;;69.13;;
6223;SDS011;3145;42.726;23.342;2023-11-21T05:53:53;96.63;;;56.23;;
6223;SDS011;3145;42.726;23.342;2023-11-21T05:56:19;79.57;;;50.00;;
6223;SDS011;3145;42.726;23.342;2023-11-21T05:58:46;76.50;;;46.93;;
6223;SDS011;3145;42.726;23.342;2023-11-21T06:01:13;62.57;;;38.00;;
6223;SDS011;3145;42.726;23.342;2023-11-21T06:03:40;62.20;;;40.10;;
6223;SDS011;3145;42.726;23.342;2023-11-21T06:06:07;74.53;;;43.77;;
6223;SDS011;3145;42.726;23.342;2023-11-21T06:08:35;75.50;;;43.87;;
6223;SDS011;3145;42.726;23.342;2023-11-21T06:11:02;81.80;;;44.53;;
6223;SDS011;3145;42.726;23.342;2023-11-21T06:13:29;85.60;;;46.53;;
6223;SDS011;3145;42.726;23.342;2023-11-21T06:15:56;84.13;;;47.27;;
6223;SDS011;3145;42.726;23.342;2023-11-21T06:18:23;90.20;;;51.70;;
6223;SDS011;3145;42.726;23.342;2023-11-21T06:20:50;100.47;;;56.87;;
6223;SDS011;3145;42.726;23.342;2023-11-21T06:23:18;99.13;;;59.43;;
6223;SDS011;3145;42.726;23.342;2023-11-21T06:25:46;106.03;;;62.77;;
6223;SDS011;3145;42.726;23.342;2023-11-21T06:28:12;104.60;;;60.20;;
6223;SDS011;3145;42.726;23.342;2023-11-21T06:30:42;98.87;;;57.17;;
6223;SDS011;3145;42.726;23.342;2023-11-21T06:33:10;83.60;;;49.83;;
6223;SDS011;3145;42.726;23.342;2023-11-21T06:35:36;191.63;;;101.37;;
6223;SDS011;3145;42.726;23.342;2023-11-21T06:38:03;77.90;;;46.00;;
6223;SDS011;3145;42.726;23.342;2023-11-21T06:40:30;59.57;;;39.70;;
6223;SDS011;3145;42.726;23.342;2023-11-21T06:43:00;57.30;;;36.93;;
6223;SDS011;3145;42.726;23.342;2023-11-21T06:45:26;63.50;;;41.17;;
6223;SDS011;3145;42.726;23.342;2023-11-21T06:47:53;58.73;;;37.87;;
6223;SDS011;3145;42.726;23.342;2023-11-21T06:50:20;63.10;;;41.33;;
6223;SDS011;3145;42.726;23.342;2023-11-21T06:52:47;58.20;;;39.90;;
6223;SDS011;3145;42.726;23.342;2023-11-21T06:55:14;75.63;;;46.27;;
6223;SDS011;3145;42.726;23.342;2023-11-21T06:57:42;68.17;;;46.50;;
6223;SDS011;3145;42.726;23.342;2023-11-21T07:00:11;75.33;;;50.13;;
6223;SDS011;3145;42.726;23.342;2023-11-21T07:02:40;65.73;;;44.83;;
6223;SDS011;3145;42.726;23.342;2023-11-21T07:05:06;74.73;;;43.77;;
6223;SDS011;3145;42.726;23.342;2023-11-21T07:07:33;71.57;;;41.90;;
6223;SDS011;3145;42.726;23.342;2023-11-21T07:10:00;68.63;;;38.53;;
6223;SDS011;3145;42.726;23.342;2023-11-21T07:12:28;57.00;;;38.67;;
6223;SDS011;3145;42.726;23.342;2023-11-21T07:14:56;68.17;;;40.53;;
6223;SDS011;3145;42.726;23.342;2023-11-21T07:17:24;51.37;;;34.40;;
6223;SDS011;3145;42.726;23.342;2023-11-21T07:19:51;54.07;;;34.97;;
6223;SDS011;3145;42.726;23.342;2023-11-21T07:22:17;55.63;;;34.23;;
6223;SDS011;3145;42.726;23.342;2023-11-21T07:24:47;54.20;;;35.20;;
6223;SDS011;3145;42.726;23.342;2023-11-21T07:27:15;62.00;;;38.53;;
6223;SDS011;3145;42.726;23.342;2023-11-21T07:29:42;58.27;;;36.13;;
6223;SDS011;3145;42.726;23.342;2023-11-21T07:32:09;55.43;;;35.97;;
6223;SDS011;3145;42.726;23.342;2023-11-21T07:34:37;49.30;;;33.37;;
6223;SDS011;3145;42.726;23.342;2023-11-21T07:37:04;53.13;;;33.10;;
6223;SDS011;3145;42.726;23.342;2023-11-21T07:39:31;59.33;;;34.77;;
6223;SDS011;3145;42.726;23.342;2023-11-21T07:41:57;60.57;;;32.77;;
6223;SDS011;3145;42.726;23.342;2023-11-21T07:44:24;46.03;;;32.53;;
6223;SDS011;3145;42.726;23.342;2023-11-21T07:46:51;55.77;;;34.33;;
6223;SDS011;3145;42.726;23.342;2023-11-21T07:49:25;63.53;;;36.80;;
6223;SDS011;3145;42.726;23.342;2023-11-21T07:51:53;76.70;;;43.90;;
6223;SDS011;3145;42.726;23.342;2023-11-21T07:54:19;73.30;;;43.60;;
6223;SDS011;3145;42.726;23.342;2023-11-21T07:56:46;75.57;;;42.47;;
6223;SDS011;3145;42.726;23.342;2023-11-21T07:59:13;68.93;;;43.53;;
6223;SDS011;3145;42.726;23.342;2023-11-21T08:01:40;63.67;;;40.60;;
6223;SDS011;3145;42.726;23.342;2023-11-21T08:04:08;62.40;;;39.40;;
6223;SDS011;3145;42.726;23.342;2023-11-21T08:06:35;61.23;;;38.27;;
6223;SDS011;3145;42.726;23.342;2023-11-21T08:09:03;65.93;;;38.17;;
6223;SDS011;3145;42.726;23.342;2023-11-21T08:11:30;61.73;;;39.60;;
6223;SDS011;3145;42.726;23.342;2023-11-21T08:13:58;64.30;;;41.13;;
6223;SDS011;3145;42.726;23.342;2023-11-21T08:16:25;73.47;;;41.77;;
6223;SDS011;3145;42.726;23.342;2023-11-21T08:18:52;92.77;;;50.67;;
6223;SDS011;3145;42.726;23.342;2023-11-21T08:21:19;63.73;;;41.10;;
6223;SDS011;3145;42.726;23.342;2023-11-21T08:23:46;55.33;;;36.97;;
6223;SDS011;3145;42.726;23.342;2023-11-21T08:26:20;65.43;;;37.63;;
6223;SDS011;3145;42.726;23.342;2023-11-21T08:28:47;54.23;;;33.97;;
6223;SDS011;3145;42.726;23.342;2023-11-21T08:31:13;54.67;;;34.60;;
6223;SDS011;3145;42.726;23.342;2023-11-21T08:33:41;51.63;;;33.27;;
6223;SDS011;3145;42.726;23.342;2023-11-21T08:36:08;51.07;;;33.07;;
6223;SDS011;3145;42.726;23.342;2023-11-21T08:38:36;58.80;;;32.23;;
6223;SDS011;3145;42.726;23.342;2023-11-21T08:41:04;48.00;;;29.93;;
6223;SDS011;3145;42.726;23.342;2023-11-21T08:43:34;48.77;;;29.80;;
6223;SDS011;3145;42.726;23.342;2023-11-21T08:46:05;49.43;;;30.87;;
6223;SDS011;3145;42.726;23.342;2023-11-21T08:48:34;50.53;;;30.63;;
6223;SDS011;3145;42.726;23.342;2023-11-21T08:51:01;49.97;;;32.33;;
6223;SDS011;3145;42.726;23.342;2023-11-21T08:53:28;46.43;;;31.40;;
6223;SDS011;3145;42.726;23.342;2023-11-21T08:55:56;51.80;;;32.60;;
6223;SDS011;3145;42.726;23.342;2023-11-21T08:58:22;49.40;;;33.73;;
6223;SDS011;3145;42.726;23.342;2023-11-21T09:00:50;52.20;;;36.33;;
6223;SDS011;3145;42.726;23.342;2023-11-21T09:03:17;57.10;;;39.90;;
6223;SDS011;3145;42.726;23.342;2023-11-21T09:05:44;63.30;;;41.43;;
6223;SDS011;3145;42.726;23.342;2023-11-21T09:08:11;68.77;;;43.47;;
6223;SDS011;3145;42.726;23.342;2023-11-21T09:10:37;55.50;;;41.53;;
6223;SDS011;3145;42.726;23.342;2023-11-21T09:13:04;58.60;;;36.53;;
6223;SDS011;3145;42.726;23.342;2023-11-21T09:15:35;53.20;;;36.67;;
6223;SDS011;3145;42.726;23.342;2023-11-21T09:18:03;62.60;;;41.33;;
6223;SDS011;3145;42.726;23.342;2023-11-21T09:20:30;48.80;;;30.90;;
6223;SDS011;3145;42.726;23.342;2023-11-21T09:22:57;44.27;;;30.53;;
6223;SDS011;3145;42.726;23.342;2023-11-21T09:25:24;48.53;;;29.27;;
6223;SDS011;3145;42.726;23.342;2023-11-21T09:27:50;39.53;;;27.93;;
6223;SDS011;3145;42.726;23.342;2023-11-21T09:30:17;37.30;;;26.77;;
6223;SDS011;3145;42.726;23.342;2023-11-21T09:32:45;37.33;;;23.23;;
6223;SDS011;3145;42.726;23.342;2023-11-21T09:35:13;37.07;;;24.27;;
6223;SDS011;3145;42.726;23.342;2023-11-21T09:37:41;37.87;;;25.90;;
6223;SDS011;3145;42.726;23.342;2023-11-21T09:40:10;38.73;;;26.47;;
6223;SDS011;3145;42.726;23.342;2023-11-21T09:42:40;35.67;;;24.87;;
6223;SDS011;3145;42.726;23.342;2023-11-21T09:45:12;38.87;;;26.23;;
6223;SDS011;3145;42.726;23.342;2023-11-21T09:47:45;41.03;;;27.97;;
6223;SDS011;3145;42.726;23.342;2023-11-21T09:50:15;43.07;;;27.07;;
6223;SDS011;3145;42.726;23.342;2023-11-21T09:52:48;32.40;;;23.23;;
6223;SDS011;3145;42.726;23.342;2023-11-21T09:55:20;32.40;;;22.37;;
6223;SDS011;3145;42.726;23.342;2023-11-21T09:57:48;29.60;;;21.73;;
6223;SDS011;3145;42.726;23.342;2023-11-21T10:00:15;27.93;;;21.10;;
6223;SDS011;3145;42.726;23.342;2023-11-21T10:02:45;32.53;;;21.13;;
6223;SDS011;3145;42.726;23.342;2023-11-21T10:05:12;35.97;;;25.03;;
6223;SDS011;3145;42.726;23.342;2023-11-21T10:07:40;47.23;;;32.50;;
6223;SDS011;3145;42.726;23.342;2023-11-21T10:10:10;49.27;;;32.17;;
6223;SDS011;3145;42.726;23.342;2023-11-21T10:12:37;43.70;;;31.60;;
6223;SDS011;3145;42.726;23.342;2023-11-21T10:15:06;52.13;;;34.30;;
6223;SDS011;3145;42.726;23.342;2023-11-21T10:17:36;52.33;;;33.03;;
6223;SDS011;3145;42.726;23.342;2023-11-21T10:20:08;65.53;;;37.23;;
6223;SDS011;3145;42.726;23.342;2023-11-21T10:22:38;53.83;;;33.30;;
6223;SDS011;3145;42.726;23.342;2023-11-21T10:25:08;53.87;;;35.20;;
6223;SDS011;3145;42.726;23.342;2023-11-21T10:27:35;52.67;;;34.97;;
6223;SDS011;3145;42.726;23.342;2023-11-21T10:30:04;51.37;;;35.47;;
6223;SDS011;3145;42.726;23.342;2023-11-21T10:32:32;48.90;;;34.13;;
6223;SDS011;3145;42.726;23.342;2023-11-21T10:34:59;42.53;;;31.17;;
6223;SDS011;3145;42.726;23.342;2023-11-21T10:37:31;44.07;;;30.57;;
6223;SDS011;3145;42.726;23.342;2023-11-21T10:39:59;41.03;;;29.20;;
6223;SDS011;3145;42.726;23.342;2023-11-21T10:42:26;46.33;;;32.03;;
6223;SDS011;3145;42.726;23.342;2023-11-21T10:44:53;43.40;;;30.43;;
6223;SDS011;3145;42.726;23.342;2023-11-21T10:47:21;37.77;;;28.37;;
6223;SDS011;3145;42.726;23.342;2023-11-21T10:49:48;44.20;;;29.37;;
6223;SDS011;3145;42.726;23.342;2023-11-21T10:52:16;39.50;;;27.67;;
6223;SDS011;3145;42.726;23.342;2023-11-21T10:54:45;46.77;;;30.03;;
6223;SDS011;3145;42.726;23.342;2023-11-21T10:57:15;36.20;;;26.03;;
6223;SDS011;3145;42.726;23.342;2023-11-21T10:59:46;46.97;;;28.30;;
6223;SDS011;3145;42.726;23.342;2023-11-21T11:02:17;41.07;;;28.33;;
6223;SDS011;3145;42.726;23.342;2023-11-21T11:04:50;39.50;;;27.97;;
6223;SDS011;3145;42.726;23.342;2023-11-21T11:07:18;42.27;;;27.33;;
6223;SDS011;3145;42.726;23.342;2023-11-21T11:09:48;44.57;;;28.73;;
6223;SDS011;3145;42.726;23.342;2023-11-21T11:12:16;46.70;;;30.40;;
6223;SDS011;3145;42.726;23.342;2023-11-21T11:14:44;39.60;;;27.73;;
6223;SDS011;3145;42.726;23.342;2023-11-21T11:17:11;40.00;;;29.73;;
6223;SDS011;3145;42.726;23.342;2023-11-21T11:19:39;38.50;;;28.90;;
6223;SDS011;3145;42.726;23.342;2023-11-21T11:22:08;53.83;;;33.80;;
6223;SDS011;3145;42.726;23.342;2023-11-21T11:24:47;47.03;;;33.13;;
6223;SDS011;3145;42.726;23.342;2023-11-21T11:27:34;47.40;;;32.70;;
6223;SDS011;3145;42.726;23.342;2023-11-21T11:30:09;71.67;;;38.50;;
6223;SDS011;3145;42.726;23.342;2023-11-21T11:32:47;39.43;;;25.50;;
6223;SDS011;3145;42.726;23.342;2023-11-21T11:35:23;33.93;;;23.40;;
6223;SDS011;3145;42.726;23.342;2023-11-21T11:37:54;34.10;;;25.23;;
6223;SDS011;3145;42.726;23.342;2023-11-21T11:40:20;33.83;;;25.03;;
6223;SDS011;3145;42.726;23.342;2023-11-21T11:42:57;39.17;;;24.10;;
6223;SDS011;3145;42.726;23.342;2023-11-21T11:45:25;39.13;;;24.23;;
6223;SDS011;3145;42.726;23.342;2023-11-21T11:47:59;39.40;;;22.93;;
6223;SDS011;3145;42.726;23.342;2023-11-21T11:50:26;37.83;;;23.23;;
6223;SDS011;3145;42.726;23.342;2023-11-21T11:52:53;41.83;;;28.60;;
6223;SDS011;3145;42.726;23.342;2023-11-21T11:55:23;45.17;;;30.17;;
6223;SDS011;3145;42.726;23.342;2023-11-21T11:57:51;41.73;;;28.93;;
6223;SDS011;3145;42.726;23.342;2023-11-21T12:00:22;42.67;;;26.93;;
6223;SDS011;3145;42.726;23.342;2023-11-21T12:03:03;46.33;;;28.33;;
6223;SDS011;3145;42.726;23.342;2023-11-21T12:05:31;47.83;;;30.03;;
6223;SDS011;3145;42.726;23.342;2023-11-21T12:08:01;42.83;;;24.10;;
6223;SDS011;3145;42.726;23.342;2023-11-21T12:10:30;35.13;;;23.47;;
6223;SDS011;3145;42.726;23.342;2023-11-21T12:12:58;44.70;;;28.80;;
6223;SDS011;3145;42.726;23.342;2023-11-21T12:15:28;45.43;;;29.73;;
6223;SDS011;3145;42.726;23.342;2023-11-21T12:17:56;55.20;;;30.40;;
6223;SDS011;3145;42.726;23.342;2023-11-21T12:20:24;47.23;;;30.60;;
6223;SDS011;3145;42.726;23.342;2023-11-21T12:22:52;45.60;;;27.30;;
6223;SDS011;3145;42.726;23.342;2023-11-21T12:25:20;44.50;;;28.77;;
6223;SDS011;3145;42.726;23.342;2023-11-21T12:27:48;40.80;;;28.20;;
6223;SDS011;3145;42.726;23.342;2023-11-21T12:30:16;39.97;;;27.43;;
6223;SDS011;3145;42.726;23.342;2023-11-21T12:32:49;42.67;;;27.67;;
6223;SDS011;3145;42.726;23.342;2023-11-21T12:35:17;44.87;;;28.13;;
6223;SDS011;3145;42.726;23.342;2023-11-21T12:37:46;40.83;;;28.43;;
6223;SDS011;3145;42.726;23.342;2023-11-21T12:40:14;44.90;;;28.37;;
6223;SDS011;3145;42.726;23.342;2023-11-21T12:42:43;38.97;;;26.80;;
6223;SDS011;3145;42.726;23.342;2023-11-21T12:45:18;39.67;;;28.20;;
6223;SDS011;3145;42.726;23.342;2023-11-21T12:47:46;38.67;;;25.97;;
6223;SDS011;3145;42.726;23.342;2023-11-21T12:50:16;35.23;;;23.63;;
6223;SDS011;3145;42.726;23.342;2023-11-21T12:52:48;31.53;;;22.87;;
6223;SDS011;3145;42.726;23.342;2023-11-21T12:55:16;34.50;;;23.23;;
6223;SDS011;3145;42.726;23.342;2023-11-21T12:57:47;35.93;;;25.77;;
6223;SDS011;3145;42.726;23.342;2023-11-21T13:00:17;34.30;;;27.10;;
6223;SDS011;3145;42.726;23.342;2023-11-21T13:02:55;40.27;;;26.70;;
6223;SDS011;3145;42.726;23.342;2023-11-21T13:05:25;39.63;;;30.20;;
6223;SDS011;3145;42.726;23.342;2023-11-21T13:07:53;41.13;;;27.27;;
6223;SDS011;3145;42.726;23.342;2023-11-21T13:10:22;35.97;;;26.47;;
6223;SDS011;3145;42.726;23.342;2023-11-21T13:12:54;32.30;;;24.40;;
6223;SDS011;3145;42.726;23.342;2023-11-21T13:15:23;32.77;;;24.70;;
6223;SDS011;3145;42.726;23.342;2023-11-21T13:17:50;41.23;;;27.00;;
6223;SDS011;3145;42.726;23.342;2023-11-21T13:20:18;45.60;;;32.70;;
6223;SDS011;3145;42.726;23.342;2023-11-21T13:22:47;46.67;;;33.10;;
6223;SDS011;3145;42.726;23.342;2023-11-21T13:25:15;54.43;;;33.80;;
6223;SDS011;3145;42.726;23.342;2023-11-21T13:27:43;48.60;;;32.37;;
6223;SDS011;3145;42.726;23.342;2023-11-21T13:30:11;48.37;;;31.73;;
6223;SDS011;3145;42.726;23.342;2023-11-21T13:32:41;48.97;;;32.03;;
6223;SDS011;3145;42.726;23.342;2023-11-21T13:35:09;52.27;;;34.80;;
6223;SDS011;3145;42.726;23.342;2023-11-21T13:37:43;52.57;;;33.73;;
6223;SDS011;3145;42.726;23.342;2023-11-21T13:40:12;47.57;;;33.27;;
6223;SDS011;3145;42.726;23.342;2023-11-21T13:42:42;60.47;;;36.33;;
6223;SDS011;3145;42.726;23.342;2023-11-21T13:45:09;57.47;;;36.30;;
6223;SDS011;3145;42.726;23.342;2023-11-21T13:47:37;61.67;;;38.07;;
6223;SDS011;3145;42.726;23.342;2023-11-21T13:50:05;67.97;;;40.97;;
6223;SDS011;3145;42.726;23.342;2023-11-21T13:52:42;65.57;;;41.53;;
6223;SDS011;3145;42.726;23.342;2023-11-21T13:55:10;63.80;;;37.87;;
6223;SDS011;3145;42.726;23.342;2023-11-21T13:57:41;55.67;;;36.33;;
6223;SDS011;3145;42.726;23.342;2023-11-21T14:00:10;62.47;;;39.47;;
6223;SDS011;3145;42.726;23.342;2023-11-21T14:02:58;55.10;;;36.40;;
6223;SDS011;3145;42.726;23.342;2023-11-21T14:05:26;53.33;;;35.83;;
6223;SDS011;3145;42.726;23.342;2023-11-21T14:07:54;62.70;;;39.37;;
6223;SDS011;3145;42.726;23.342;2023-11-21T14:10:28;52.63;;;34.27;;
6223;SDS011;3145;42.726;23.342;2023-11-21T14:13:02;57.57;;;35.60;;
6223;SDS011;3145;42.726;23.342;2023-11-21T14:15:29;54.87;;;36.50;;
6223;SDS011;3145;42.726;23.342;2023-11-21T14:17:58;57.73;;;36.47;;
6223;SDS011;3145;42.726;23.342;2023-11-21T14:20:25;57.77;;;36.87;;
6223;SDS011;3145;42.726;23.342;2023-11-21T14:22:51;59.60;;;37.83;;
6223;SDS011;3145;42.726;23.342;2023-11-21T14:25:18;61.17;;;38.83;;
6223;SDS011;3145;42.726;23.342;2023-11-21T14:27:48;95.17;;;46.77;;
6223;SDS011;3145;42.726;23.342;2023-11-21T14:30:14;104.73;;;52.27;;
6223;SDS011;3145;42.726;23.342;2023-11-21T14:32:44;98.37;;;50.50;;
6223;SDS011;3145;42.726;23.342;2023-11-21T14:35:11;95.00;;;60.00;;